Time;durP1;ratioP1;P1;durP2;ratioP2;P2;SDS_P1;SDS_P2;PMS_P1;PMS_P2;Temp;Humidity;BMP_temperature;BMP_pressure;BME280_temperature;BME280_humidity;BME280_pressure;Samples;Min_cycle;Max_cycle;Signal;HPM_P1;HPM_P2
2022/03/12 00:00:10;;;;;;;14.40;8.10;;;2.60;88.30;;;;;;5025399;28;20209;-74
2022/03/12 00:02:36;;;;;;;15.17;7.73;;;2.60;88.50;;;;;;5021514;28;20190;-78
2022/03/12 00:05:07;;;;;;;17.17;9.20;;;2.60;88.60;;;;;;5023128;28;20186;-75
2022/03/12 00:07:33;;;;;;;18.20;8.30;;;2.50;88.50;;;;;;5023515;28;20225;-74
2022/03/12 00:10:00;;;;;;;14.30;8.10;;;2.50;88.70;;;;;;5039726;28;20672;-73
2022/03/12 00:12:34;;;;;;;19.47;8.10;;;2.50;88.90;;;;;;5024932;28;20207;-74
2022/03/12 00:15:02;;;;;;;17.30;8.90;;;2.50;89.00;;;;;;5025639;28;20215;-74
2022/03/12 00:17:29;;;;;;;16.93;8.37;;;2.50;89.30;;;;;;5016466;28;20247;-74
2022/03/12 00:19:56;;;;;;;17.07;7.60;;;2.40;89.40;;;;;;5024999;28;20168;-75
2022/03/12 00:22:22;;;;;;;15.93;8.23;;;2.50;89.40;;;;;;5025920;28;20208;-74
2022/03/12 00:24:48;;;;;;;17.53;8.90;;;2.40;89.50;;;;;;5016623;28;20565;-74
2022/03/12 00:27:15;;;;;;;13.07;7.93;;;2.40;89.60;;;;;;5022422;28;20231;-74
2022/03/12 00:29:40;;;;;;;14.93;8.13;;;2.40;89.70;;;;;;5039274;28;20220;-75
2022/03/12 00:32:07;;;;;;;16.60;8.20;;;2.40;89.60;;;;;;5025921;28;20238;-74
2022/03/12 00:34:32;;;;;;;20.07;8.87;;;2.40;89.70;;;;;;5032336;28;20234;-74
2022/03/12 00:36:58;;;;;;;16.33;8.23;;;2.40;90.00;;;;;;5024948;28;20246;-75
2022/03/12 00:39:23;;;;;;;21.73;9.70;;;2.30;90.10;;;;;;5031412;28;20213;-74
2022/03/12 00:41:49;;;;;;;20.47;9.13;;;2.30;90.10;;;;;;5021160;28;20257;-75
2022/03/12 00:44:19;;;;;;;21.80;8.97;;;2.30;90.20;;;;;;5012723;28;20215;-76
2022/03/12 00:46:45;;;;;;;17.87;8.70;;;2.20;90.30;;;;;;5021972;28;20230;-78
2022/03/12 00:49:11;;;;;;;17.20;8.43;;;2.20;90.30;;;;;;5021857;28;20220;-75
2022/03/12 00:51:38;;;;;;;19.50;9.93;;;2.20;90.30;;;;;;5024438;28;20227;-74
2022/03/12 00:54:04;;;;;;;16.77;8.27;;;2.30;90.40;;;;;;5025137;28;20251;-75
2022/03/12 00:56:30;;;;;;;20.23;9.77;;;2.20;90.50;;;;;;5026236;28;20233;-76
2022/03/12 00:58:57;;;;;;;21.77;8.63;;;2.20;90.60;;;;;;5020962;28;20211;-76
2022/03/12 01:01:23;;;;;;;18.10;8.73;;;2.20;90.60;;;;;;5019855;28;20218;-75
2022/03/12 01:03:49;;;;;;;19.00;8.50;;;2.10;90.80;;;;;;5039412;28;20218;-75
2022/03/12 01:06:18;;;;;;;16.63;9.10;;;2.20;90.70;;;;;;5022627;28;20215;-75
2022/03/12 01:08:44;;;;;;;17.93;9.33;;;2.10;90.80;;;;;;5034805;28;20205;-75
2022/03/12 01:11:11;;;;;;;20.43;9.27;;;2.20;90.90;;;;;;5018054;28;20174;-78
2022/03/12 01:13:37;;;;;;;17.03;8.53;;;2.10;91.30;;;;;;5023657;28;20647;-76
2022/03/12 01:16:03;;;;;;;18.47;8.80;;;2.10;91.00;;;;;;5023297;28;20222;-75
2022/03/12 01:18:29;;;;;;;14.30;8.57;;;2.10;91.20;;;;;;5021706;28;20211;-76
2022/03/12 01:20:55;;;;;;;17.23;9.73;;;2.00;91.20;;;;;;5016080;28;20262;-78
2022/03/12 01:23:24;;;;;;;22.67;9.57;;;2.10;91.30;;;;;;5023746;28;20179;-74
2022/03/12 01:25:52;;;;;;;17.73;8.80;;;2.00;91.30;;;;;;5020736;28;20197;-75
2022/03/12 01:28:18;;;;;;;18.70;9.37;;;2.00;91.40;;;;;;5022866;28;20288;-77
2022/03/12 01:30:44;;;;;;;20.87;9.47;;;2.00;91.50;;;;;;5023284;28;20216;-75
2022/03/12 01:33:11;;;;;;;18.60;9.17;;;2.00;91.60;;;;;;5023799;28;20758;-76
2022/03/12 01:35:37;;;;;;;18.77;10.27;;;1.90;91.60;;;;;;5021166;28;20205;-76
2022/03/12 01:38:03;;;;;;;23.63;10.40;;;1.90;91.70;;;;;;5019919;28;20256;-76
2022/03/12 01:40:29;;;;;;;22.63;9.63;;;1.90;91.80;;;;;;5021351;28;20219;-76
2022/03/12 01:42:55;;;;;;;16.77;8.67;;;1.90;91.80;;;;;;5023446;28;20214;-77
2022/03/12 01:45:27;;;;;;;16.57;8.57;;;1.90;91.80;;;;;;5023196;28;20679;-81
2022/03/12 01:47:55;;;;;;;19.77;9.43;;;1.90;91.90;;;;;;5019718;28;20207;-78
2022/03/12 01:50:23;;;;;;;19.90;9.83;;;1.80;92.00;;;;;;5019735;28;20165;-76
2022/03/12 01:52:49;;;;;;;23.87;9.00;;;1.80;92.10;;;;;;5026788;28;20647;-76
2022/03/12 01:55:15;;;;;;;19.43;9.23;;;1.90;92.10;;;;;;5018986;28;20207;-75
2022/03/12 01:57:40;;;;;;;19.70;9.00;;;1.80;92.20;;;;;;5018545;28;20294;-75
2022/03/12 02:00:20;;;;;;;20.17;10.43;;;1.80;92.20;;;;;;5023598;28;20213;-75
2022/03/12 02:02:50;;;;;;;19.77;9.57;;;1.80;92.30;;;;;;5015006;28;20646;-75
2022/03/12 02:05:16;;;;;;;24.80;10.47;;;1.80;92.40;;;;;;5023249;28;20176;-76
2022/03/12 02:07:41;;;;;;;18.90;10.20;;;1.70;92.50;;;;;;5020075;28;20302;-75
2022/03/12 02:10:10;;;;;;;22.17;10.23;;;1.70;92.50;;;;;;5019187;28;20752;-75
2022/03/12 02:12:38;;;;;;;22.00;9.73;;;1.70;92.60;;;;;;5010984;28;20210;-78
2022/03/12 02:15:04;;;;;;;19.37;9.70;;;1.70;92.70;;;;;;5019759;28;20221;-76
2022/03/12 02:17:30;;;;;;;18.53;9.37;;;1.60;92.80;;;;;;5019040;28;20208;-75
2022/03/12 02:19:55;;;;;;;20.47;9.13;;;1.60;92.90;;;;;;5022866;28;20657;-75
2022/03/12 02:22:21;;;;;;;17.20;9.53;;;1.60;93.00;;;;;;5023013;28;20227;-79
2022/03/12 02:24:46;;;;;;;20.47;9.87;;;1.60;93.10;;;;;;5034994;28;20268;-75
2022/03/12 02:27:12;;;;;;;18.60;9.13;;;1.60;93.10;;;;;;5021216;28;20209;-75
2022/03/12 02:29:40;;;;;;;16.83;9.07;;;1.50;93.20;;;;;;5018405;28;20184;-75
2022/03/12 02:32:09;;;;;;;23.30;10.53;;;1.50;93.30;;;;;;5017854;28;20181;-75
2022/03/12 02:34:47;;;;;;;24.47;10.30;;;1.50;93.40;;;;;;5021361;28;20214;-75
2022/03/12 02:37:28;;;;;;;20.23;9.83;;;1.50;93.50;;;;;;5022503;28;20299;-75
2022/03/12 02:39:55;;;;;;;21.83;9.67;;;1.40;93.60;;;;;;5024792;28;20208;-75
2022/03/12 02:42:24;;;;;;;15.97;8.93;;;1.40;93.80;;;;;;5026555;28;20210;-77
2022/03/12 02:44:50;;;;;;;24.13;10.43;;;1.40;93.70;;;;;;5031201;28;20698;-75
2022/03/12 02:47:22;;;;;;;19.90;9.80;;;1.40;93.80;;;;;;5023553;28;20213;-76
2022/03/12 02:49:49;;;;;;;17.37;9.70;;;1.30;93.80;;;;;;5022597;28;20585;-76
2022/03/12 02:52:16;;;;;;;24.13;9.43;;;1.30;94.00;;;;;;5022855;28;20595;-75
2022/03/12 02:54:43;;;;;;;18.07;9.37;;;1.30;94.00;;;;;;5040921;28;20849;-75
2022/03/12 02:57:09;;;;;;;23.30;9.67;;;1.30;93.90;;;;;;5023553;28;20243;-75
2022/03/12 02:59:35;;;;;;;20.73;10.23;;;1.20;94.00;;;;;;5023942;28;20184;-78
2022/03/12 03:02:02;;;;;;;19.23;9.63;;;1.30;94.10;;;;;;5021144;28;20184;-75
2022/03/12 03:04:28;;;;;;;22.47;10.20;;;1.20;94.30;;;;;;5039173;28;20596;-76
2022/03/12 03:06:53;;;;;;;19.47;9.80;;;1.20;94.50;;;;;;5026087;28;20292;-77
2022/03/12 03:09:19;;;;;;;21.53;9.13;;;1.20;94.50;;;;;;5025207;28;20242;-75
2022/03/12 03:11:45;;;;;;;16.80;9.40;;;1.20;94.60;;;;;;5022585;28;20209;-73
2022/03/12 03:14:11;;;;;;;20.17;9.60;;;1.10;94.60;;;;;;5023330;28;20287;-77
2022/03/12 03:16:38;;;;;;;21.47;9.93;;;1.10;94.60;;;;;;5039553;28;20315;-76
2022/03/12 03:19:03;;;;;;;20.20;9.10;;;1.10;94.60;;;;;;5025251;28;20204;-75
2022/03/12 03:21:29;;;;;;;19.63;9.33;;;1.10;94.60;;;;;;5025500;28;20223;-75
2022/03/12 03:23:56;;;;;;;20.83;9.93;;;1.10;94.70;;;;;;5026328;28;20211;-76
2022/03/12 03:26:44;;;;;;;22.50;9.10;;;1.00;94.70;;;;;;5025159;28;20570;-76
2022/03/12 03:29:10;;;;;;;19.43;10.27;;;1.00;94.80;;;;;;5022608;28;20193;-75
2022/03/12 03:31:36;;;;;;;24.03;9.03;;;0.90;94.80;;;;;;5018123;28;20230;-75
2022/03/12 03:34:02;;;;;;;25.30;10.40;;;1.00;94.80;;;;;;5040895;28;20299;-78
2022/03/12 03:36:28;;;;;;;19.17;8.97;;;1.00;94.80;;;;;;5024059;28;20306;-76
2022/03/12 03:38:54;;;;;;;23.80;9.40;;;0.90;94.80;;;;;;5025156;28;20307;-77
2022/03/12 03:41:19;;;;;;;21.57;9.70;;;0.90;94.90;;;;;;5018547;28;21139;-75
2022/03/12 03:43:48;;;;;;;22.70;10.33;;;0.90;95.00;;;;;;5014070;28;20267;-75
2022/03/12 03:46:22;;;;;;;19.43;9.50;;;0.90;95.00;;;;;;5013749;28;20711;-75
2022/03/12 03:48:51;;;;;;;20.80;9.33;;;0.80;95.10;;;;;;5028091;28;20210;-74
2022/03/12 03:51:19;;;;;;;17.53;9.17;;;0.80;95.10;;;;;;5013370;28;20296;-75
2022/03/12 03:53:44;;;;;;;19.13;9.90;;;0.80;95.20;;;;;;5013591;28;20701;-74
2022/03/12 03:56:10;;;;;;;24.33;9.80;;;0.80;95.30;;;;;;5014028;28;20254;-74
2022/03/12 03:58:37;;;;;;;25.40;10.67;;;0.80;95.20;;;;;;5012743;28;20220;-76
2022/03/12 04:01:06;;;;;;;19.83;9.73;;;0.80;95.30;;;;;;5020544;28;20206;-74
2022/03/12 04:03:32;;;;;;;20.70;8.80;;;0.80;95.40;;;;;;5011785;28;20290;-75
2022/03/12 04:05:59;;;;;;;22.17;9.67;;;0.80;95.50;;;;;;5013827;28;20705;-77
2022/03/12 04:08:25;;;;;;;21.43;10.13;;;0.70;95.50;;;;;;5012638;28;20243;-75
2022/03/12 04:10:51;;;;;;;25.53;10.63;;;0.70;95.60;;;;;;5013969;28;20212;-76
2022/03/12 04:13:18;;;;;;;20.33;9.50;;;0.70;95.50;;;;;;5015036;28;20729;-75
2022/03/12 04:15:45;;;;;;;22.37;10.27;;;0.70;95.60;;;;;;5011728;28;20229;-75
2022/03/12 04:18:10;;;;;;;21.07;9.53;;;0.70;95.70;;;;;;5012571;28;20295;-75
2022/03/12 04:20:38;;;;;;;22.23;9.90;;;0.70;95.80;;;;;;5013188;28;20729;-75
2022/03/12 04:23:04;;;;;;;25.73;10.47;;;0.70;95.80;;;;;;5013763;28;20181;-75
2022/03/12 04:25:31;;;;;;;19.43;9.20;;;0.60;95.90;;;;;;5026173;28;20233;-75
2022/03/12 04:28:00;;;;;;;21.53;9.40;;;0.60;95.90;;;;;;5012571;28;20208;-76
2022/03/12 04:30:28;;;;;;;20.17;9.60;;;0.60;96.10;;;;;;5012732;28;20312;-77
2022/03/12 04:32:54;;;;;;;17.23;8.07;;;0.60;96.10;;;;;;5013245;28;20255;-75
2022/03/12 04:35:19;;;;;;;20.30;9.73;;;0.50;96.10;;;;;;5027607;28;20181;-75
2022/03/12 04:37:45;;;;;;;20.80;9.23;;;0.50;96.10;;;;;;5012065;28;20217;-75
2022/03/12 04:40:16;;;;;;;20.63;9.50;;;0.50;96.30;;;;;;5012464;28;20218;-76
2022/03/12 04:42:44;;;;;;;20.83;10.47;;;0.50;96.30;;;;;;5015723;28;20215;-75
2022/03/12 04:45:12;;;;;;;17.93;9.77;;;0.50;96.40;;;;;;5012763;28;20300;-75
2022/03/12 04:47:42;;;;;;;21.00;9.80;;;0.40;96.40;;;;;;5012803;28;20939;-76
2022/03/12 04:50:08;;;;;;;21.73;9.93;;;0.40;96.50;;;;;;5013186;28;20536;-76
2022/03/12 04:52:35;;;;;;;23.10;10.20;;;0.40;96.60;;;;;;5012736;28;20240;-76
2022/03/12 04:55:11;;;;;;;20.43;9.47;;;0.40;96.70;;;;;;5012899;28;20592;-76
2022/03/12 04:57:37;;;;;;;21.00;9.97;;;0.40;96.80;;;;;;5012338;28;20303;-76
2022/03/12 05:00:09;;;;;;;22.07;9.70;;;0.40;96.80;;;;;;5021185;28;20236;-76
2022/03/12 05:02:34;;;;;;;18.70;9.20;;;0.40;96.90;;;;;;5011632;28;20189;-75
2022/03/12 05:04:59;;;;;;;17.93;9.57;;;0.30;96.90;;;;;;5028299;28;20188;-78
2022/03/12 05:07:26;;;;;;;23.80;9.00;;;0.40;97.00;;;;;;5012093;28;20213;-76
2022/03/12 05:09:53;;;;;;;18.50;8.97;;;0.30;97.00;;;;;;5011935;28;20570;-76
2022/03/12 05:12:23;;;;;;;23.57;9.00;;;0.40;97.10;;;;;;5014871;28;20213;-76
2022/03/12 05:14:50;;;;;;;19.93;9.60;;;0.40;97.00;;;;;;5012458;28;20236;-78
2022/03/12 05:17:17;;;;;;;20.97;10.27;;;0.30;97.20;;;;;;5012632;28;20594;-76
2022/03/12 05:19:42;;;;;;;23.33;10.17;;;0.30;97.20;;;;;;5018175;28;20216;-76
2022/03/12 05:22:08;;;;;;;23.50;9.50;;;0.40;97.20;;;;;;5012252;28;20221;-76
2022/03/12 05:24:34;;;;;;;19.50;9.07;;;0.40;97.20;;;;;;5012104;28;20220;-76
2022/03/12 05:27:00;;;;;;;18.87;9.53;;;0.40;97.20;;;;;;5011969;28;20266;-79
2022/03/12 05:29:26;;;;;;;18.30;9.13;;;0.30;97.30;;;;;;5011057;28;20215;-76
2022/03/12 05:31:55;;;;;;;20.33;11.40;;;0.40;97.30;;;;;;5017167;28;20177;-77
2022/03/12 05:34:23;;;;;;;23.13;10.23;;;0.40;97.30;;;;;;5015592;28;20232;-76
2022/03/12 05:36:49;;;;;;;23.90;10.70;;;0.40;97.40;;;;;;5019654;28;20236;-75
2022/03/12 05:39:15;;;;;;;20.43;9.50;;;0.40;97.30;;;;;;5011410;28;20216;-75
2022/03/12 05:41:44;;;;;;;23.90;10.77;;;0.40;97.30;;;;;;5026620;28;20687;-75
2022/03/12 05:44:15;;;;;;;22.67;10.70;;;0.40;97.40;;;;;;5017343;28;20183;-75
2022/03/12 05:46:41;;;;;;;21.47;10.67;;;0.50;97.40;;;;;;5011765;28;20260;-77
2022/03/12 05:49:08;;;;;;;20.97;10.07;;;0.50;97.30;;;;;;5011513;28;20219;-77
2022/03/12 05:51:37;;;;;;;24.27;10.50;;;0.50;97.30;;;;;;5011605;28;20244;-75
2022/03/12 05:54:03;;;;;;;24.87;10.73;;;0.60;97.30;;;;;;5011646;28;20217;-74
2022/03/12 05:56:29;;;;;;;24.07;10.17;;;0.50;97.30;;;;;;5011498;28;20206;-75
2022/03/12 05:58:55;;;;;;;21.20;10.03;;;0.60;97.30;;;;;;5020304;28;20181;-75
2022/03/12 06:01:21;;;;;;;23.27;10.90;;;0.60;97.30;;;;;;5019611;28;20220;-75
2022/03/12 06:03:47;;;;;;;20.27;10.47;;;0.60;97.30;;;;;;5023978;28;20775;-76
2022/03/12 06:06:14;;;;;;;28.93;12.03;;;0.70;97.30;;;;;;5031984;28;20222;-76
2022/03/12 06:08:40;;;;;;;28.33;10.83;;;0.70;97.30;;;;;;5030497;28;20202;-76
2022/03/12 06:11:06;;;;;;;21.10;9.83;;;0.70;97.40;;;;;;5032159;28;20695;-76
2022/03/12 06:13:32;;;;;;;23.87;10.30;;;0.70;97.30;;;;;;5033439;28;20244;-76
2022/03/12 06:15:58;;;;;;;23.27;10.57;;;1.40;97.40;;;;;;5026048;28;20228;-76
2022/03/12 06:18:33;;;;;;;20.63;10.60;;;4.10;94.90;;;;;;5034727;28;20524;-76
2022/03/12 06:20:59;;;;;;;24.03;10.87;;;5.80;91.80;;;;;;5035994;28;20635;-76
2022/03/12 06:23:24;;;;;;;21.07;10.50;;;7.00;89.90;;;;;;5071309;23;20704;-74
2022/03/12 06:25:51;;;;;;;22.33;10.17;;;7.10;86.90;;;;;;5076187;28;20229;-74
2022/03/12 06:28:17;;;;;;;21.17;10.47;;;7.60;86.80;;;;;;5075151;28;20221;-74
2022/03/12 06:30:43;;;;;;;28.50;10.27;;;7.90;84.30;;;;;;5074909;28;20239;-74
2022/03/12 06:33:09;;;;;;;24.03;10.80;;;8.40;83.00;;;;;;5068796;28;20245;-72
2022/03/12 06:35:35;;;;;;;24.40;11.40;;;8.20;81.50;;;;;;5054109;28;20183;-72
2022/03/12 06:38:00;;;;;;;22.63;10.17;;;8.80;81.40;;;;;;5054846;28;20207;-72
2022/03/12 06:40:28;;;;;;;21.50;10.67;;;8.40;80.50;;;;;;5054254;28;20214;-72
2022/03/12 06:42:55;;;;;;;18.70;10.63;;;8.60;79.90;;;;;;5062418;28;20225;-72
2022/03/12 06:45:21;;;;;;;24.60;10.77;;;9.00;79.50;;;;;;5052685;28;20204;-75
2022/03/12 06:47:47;;;;;;;17.00;10.10;;;9.30;78.30;;;;;;5045716;28;20208;-71
2022/03/12 06:50:15;;;;;;;21.23;10.37;;;9.80;77.20;;;;;;5052173;28;20294;-72
2022/03/12 06:52:43;;;;;;;21.57;11.43;;;10.10;75.90;;;;;;5053681;28;20230;-72
2022/03/12 06:55:09;;;;;;;20.13;10.63;;;9.70;74.70;;;;;;5052530;28;20215;-72
2022/03/12 06:57:35;;;;;;;19.93;10.90;;;9.50;76.30;;;;;;5053535;28;20668;-71
2022/03/12 07:00:01;;;;;;;25.17;12.10;;;9.80;74.80;;;;;;5053250;28;20707;-72
2022/03/12 07:02:27;;;;;;;23.23;11.33;;;9.00;75.50;;;;;;5053277;28;20285;-73
2022/03/12 07:04:52;;;;;;;20.47;10.93;;;8.60;76.00;;;;;;5054174;28;20215;-73
2022/03/12 07:07:18;;;;;;;19.63;10.00;;;9.10;77.10;;;;;;5060625;28;20203;-72
2022/03/12 07:09:43;;;;;;;19.23;10.37;;;9.00;74.50;;;;;;5052685;28;20203;-72
2022/03/12 07:12:09;;;;;;;18.93;10.67;;;9.30;75.80;;;;;;5053151;28;20235;-74
2022/03/12 07:14:36;;;;;;;18.20;10.60;;;9.20;74.80;;;;;;5053347;28;20176;-73
2022/03/12 07:17:02;;;;;;;23.13;11.40;;;9.90;74.40;;;;;;5053884;28;20238;-72
2022/03/12 07:19:27;;;;;;;18.23;10.40;;;9.40;72.70;;;;;;5051060;28;20211;-72
2022/03/12 07:21:53;;;;;;;19.47;10.67;;;8.60;75.30;;;;;;5052479;28;20223;-72
2022/03/12 07:24:18;;;;;;;18.83;10.87;;;9.40;74.60;;;;;;5051262;28;20673;-73
2022/03/12 07:26:45;;;;;;;18.80;10.27;;;10.30;72.40;;;;;;5053442;28;20239;-72
2022/03/12 07:29:11;;;;;;;23.90;10.97;;;10.80;69.90;;;;;;5052991;28;20176;-73
2022/03/12 07:31:37;;;;;;;20.50;10.40;;;10.30;70.10;;;;;;5052115;28;20592;-73
2022/03/12 07:34:04;;;;;;;21.40;10.00;;;10.40;70.40;;;;;;5051992;28;20216;-73
2022/03/12 07:36:29;;;;;;;19.80;10.47;;;9.90;70.90;;;;;;5052871;28;20254;-72
2022/03/12 07:38:58;;;;;;;21.50;10.20;;;10.20;70.10;;;;;;5059380;28;20207;-73
2022/03/12 07:41:24;;;;;;;20.63;10.20;;;9.60;70.10;;;;;;5061109;28;20198;-73
2022/03/12 07:43:50;;;;;;;18.13;9.43;;;9.30;71.00;;;;;;5051938;28;20624;-73
2022/03/12 07:46:15;;;;;;;21.37;10.80;;;9.60;71.30;;;;;;5051660;28;20203;-75
2022/03/12 07:48:41;;;;;;;21.70;10.60;;;10.50;69.00;;;;;;5050771;28;20291;-75
2022/03/12 07:51:07;;;;;;;19.50;9.93;;;10.80;68.90;;;;;;5053458;28;20273;-73
2022/03/12 07:53:32;;;;;;;20.07;10.23;;;11.20;67.90;;;;;;5052674;28;20203;-74
2022/03/12 07:55:59;;;;;;;17.67;10.07;;;10.50;67.30;;;;;;5051522;28;20229;-75
2022/03/12 07:58:26;;;;;;;17.40;10.27;;;10.50;68.20;;;;;;5049876;28;20606;-74
2022/03/12 08:00:56;;;;;;;19.03;9.57;;;10.60;67.30;;;;;;5053061;28;20208;-75
2022/03/12 08:03:23;;;;;;;14.80;8.70;;;10.80;67.00;;;;;;5052134;28;20220;-75
2022/03/12 08:05:49;;;;;;;17.03;9.17;;;11.10;66.40;;;;;;5050878;28;20221;-75
2022/03/12 08:08:14;;;;;;;18.07;9.87;;;11.20;65.10;;;;;;5051702;28;20195;-74
2022/03/12 08:11:25;;;;;;;20.50;9.77;;;11.20;66.40;;;;;;5052305;28;20218;-74
2022/03/12 08:13:25;;;;;;;15.80;9.20;;;10.50;65.20;;;;;;5043268;28;20216;-78
2022/03/12 08:15:51;;;;;;;14.20;8.93;;;10.80;65.80;;;;;;5051686;28;20203;-73
2022/03/12 08:18:17;;;;;;;16.93;8.23;;;10.60;64.80;;;;;;5050944;28;20288;-74
2022/03/12 08:20:44;;;;;;;15.57;8.67;;;10.70;64.80;;;;;;5050385;28;20593;-74
2022/03/12 08:23:10;;;;;;;20.33;8.70;;;11.60;63.80;;;;;;5051886;28;20672;-74
2022/03/12 08:25:36;;;;;;;15.83;8.30;;;11.00;64.20;;;;;;5051597;28;20226;-75
2022/03/12 08:28:02;;;;;;;15.80;8.37;;;10.90;63.30;;;;;;5049575;28;20204;-73
2022/03/12 08:30:28;;;;;;;13.73;8.50;;;11.00;63.10;;;;;;5050726;28;20235;-77
2022/03/12 08:32:53;;;;;;;13.67;8.07;;;11.10;62.30;;;;;;5051386;28;20256;-74
2022/03/12 08:35:19;;;;;;;17.30;8.40;;;11.20;62.20;;;;;;5051858;28;20553;-74
2022/03/12 08:37:44;;;;;;;15.97;8.20;;;11.40;62.50;;;;;;5050035;28;20299;-75
2022/03/12 08:40:14;;;;;;;18.10;7.83;;;11.30;61.60;;;;;;5054080;28;20817;-75
2022/03/12 08:42:40;;;;;;;14.73;8.20;;;11.10;61.70;;;;;;5053862;28;20716;-75
2022/03/12 08:45:07;;;;;;;13.87;7.90;;;11.30;61.70;;;;;;5052561;28;20246;-75
2022/03/12 08:47:33;;;;;;;15.80;7.93;;;11.40;61.50;;;;;;5050858;28;20566;-76
2022/03/12 08:49:59;;;;;;;13.30;7.10;;;11.10;60.60;;;;;;5057597;28;20184;-75
2022/03/12 08:52:25;;;;;;;12.40;6.90;;;11.00;61.30;;;;;;5051394;28;20290;-75
2022/03/12 08:54:51;;;;;;;17.70;6.90;;;10.80;60.30;;;;;;5051652;28;20207;-75
2022/03/12 08:57:17;;;;;;;14.10;7.70;;;9.70;60.80;;;;;;5054353;28;20215;-75
2022/03/12 08:59:42;;;;;;;12.37;7.30;;;9.60;62.40;;;;;;5050823;28;20212;-74
2022/03/12 09:02:09;;;;;;;17.47;7.93;;;10.40;61.10;;;;;;5051662;28;20252;-74
2022/03/12 09:04:34;;;;;;;13.67;7.90;;;10.10;63.50;;;;;;5051255;28;20211;-74
2022/03/12 09:07:00;;;;;;;20.13;8.63;;;10.50;64.70;;;;;;5051103;28;20206;-74
2022/03/12 09:09:25;;;;;;;13.93;6.53;;;10.80;67.20;;;;;;5050290;28;20294;-75
2022/03/12 09:11:51;;;;;;;13.20;6.63;;;10.20;61.90;;;;;;5050400;28;20203;-74
2022/03/12 09:14:18;;;;;;;11.07;6.53;;;9.70;63.60;;;;;;5052585;28;20254;-77
2022/03/12 09:16:43;;;;;;;12.83;6.83;;;9.80;64.20;;;;;;5049146;28;20222;-79
2022/03/12 09:19:09;;;;;;;14.50;6.77;;;9.90;64.80;;;;;;5048834;28;20227;-73
2022/03/12 09:21:35;;;;;;;12.77;7.03;;;9.10;64.60;;;;;;5045936;28;20306;-76
2022/03/12 09:24:03;;;;;;;13.67;6.60;;;9.10;64.00;;;;;;5047476;28;20218;-74
2022/03/12 09:26:28;;;;;;;12.50;7.07;;;9.40;63.60;;;;;;5050683;28;20171;-71
2022/03/12 09:28:54;;;;;;;13.67;7.17;;;10.00;62.50;;;;;;5050542;28;20644;-73
2022/03/12 09:31:21;;;;;;;13.20;7.10;;;10.20;61.40;;;;;;5049126;28;20202;-74
2022/03/12 09:33:46;;;;;;;17.90;7.33;;;10.10;60.50;;;;;;5051634;28;20235;-75
2022/03/12 09:36:12;;;;;;;13.93;6.80;;;9.60;61.20;;;;;;5050470;28;20211;-73
2022/03/12 09:38:38;;;;;;;11.57;6.17;;;9.10;61.50;;;;;;5048099;28;20199;-74
2022/03/12 09:41:04;;;;;;;13.40;7.27;;;8.50;62.10;;;;;;5050790;28;20605;-72
2022/03/12 09:43:29;;;;;;;11.37;6.17;;;8.90;62.70;;;;;;5050150;28;20295;-72
2022/03/12 09:45:57;;;;;;;15.53;6.90;;;8.90;62.40;;;;;;5048630;28;20200;-74
2022/03/12 09:48:22;;;;;;;11.10;7.13;;;9.00;62.70;;;;;;5055853;28;20290;-72
2022/03/12 09:50:48;;;;;;;13.63;6.83;;;9.20;62.30;;;;;;5050094;28;20635;-72
2022/03/12 09:53:13;;;;;;;13.07;6.27;;;9.30;61.90;;;;;;5048698;28;20699;-73
2022/03/12 09:55:39;;;;;;;17.33;7.00;;;8.80;61.60;;;;;;5048622;28;20850;-72
2022/03/12 09:58:06;;;;;;;16.33;6.13;;;8.60;61.90;;;;;;5048394;28;20231;-73
2022/03/12 10:00:31;;;;;;;11.63;6.13;;;8.40;62.50;;;;;;5048988;28;20337;-72
2022/03/12 10:02:58;;;;;;;11.87;6.30;;;8.60;62.80;;;;;;5048206;28;20231;-73
2022/03/12 10:05:23;;;;;;;13.40;6.17;;;8.90;62.30;;;;;;5056730;28;20187;-72
2022/03/12 10:07:49;;;;;;;12.80;6.07;;;8.20;62.30;;;;;;5049862;28;20253;-72
2022/03/12 10:10:22;;;;;;;10.97;5.83;;;8.40;63.10;;;;;;5049866;28;20316;-72
2022/03/12 10:12:48;;;;;;;13.13;6.50;;;8.40;62.50;;;;;;5050404;28;20211;-73
2022/03/12 10:15:15;;;;;;;12.47;6.10;;;8.30;62.80;;;;;;5050719;28;20235;-73
2022/03/12 10:17:41;;;;;;;13.27;6.33;;;8.30;63.30;;;;;;5049983;28;20284;-73
2022/03/12 10:20:10;;;;;;;10.13;5.90;;;8.80;63.20;;;;;;5050792;28;20183;-71
2022/03/12 10:22:36;;;;;;;16.47;5.93;;;9.00;62.70;;;;;;5052352;28;20227;-72
2022/03/12 10:25:02;;;;;;;12.37;5.73;;;9.10;62.20;;;;;;5056683;28;20298;-74
2022/03/12 10:27:27;;;;;;;13.97;7.30;;;8.90;62.20;;;;;;5050348;28;20806;-72
2022/03/12 10:29:53;;;;;;;11.93;5.93;;;9.10;62.20;;;;;;5049836;28;20203;-72
2022/03/12 10:32:25;;;;;;;15.97;7.20;;;9.50;62.40;;;;;;5050822;28;20188;-72
2022/03/12 10:34:53;;;;;;;11.53;6.50;;;9.50;61.90;;;;;;5049389;28;20218;-71
2022/03/12 10:37:21;;;;;;;10.37;5.77;;;9.40;61.80;;;;;;5050429;28;20712;-74
2022/03/12 10:39:47;;;;;;;17.33;6.63;;;9.30;61.80;;;;;;5041534;28;20207;-72
2022/03/12 10:42:13;;;;;;;9.83;6.00;;;9.20;61.80;;;;;;5049893;28;20598;-72
2022/03/12 10:44:42;;;;;;;10.13;5.77;;;9.00;61.80;;;;;;5048520;28;20257;-72
2022/03/12 10:47:20;;;;;;;13.53;6.40;;;9.20;62.80;;;;;;5049994;28;20195;-73
2022/03/12 10:49:56;;;;;;;11.73;5.90;;;9.20;62.30;;;;;;5047527;28;20219;-74
2022/03/12 10:52:22;;;;;;;10.20;5.70;;;9.40;61.90;;;;;;5049514;28;20265;-72
2022/03/12 10:54:49;;;;;;;7.37;5.50;;;9.60;62.20;;;;;;5046663;28;20708;-73
2022/03/12 10:57:17;;;;;;;9.90;5.07;;;9.70;61.30;;;;;;5048928;28;20299;-74
2022/03/12 10:59:42;;;;;;;11.90;5.93;;;9.60;60.30;;;;;;5048271;28;20290;-73
2022/03/12 11:02:09;;;;;;;9.90;5.13;;;9.40;60.60;;;;;;5052407;28;20290;-72
2022/03/12 11:04:34;;;;;;;11.93;5.03;;;9.40;60.30;;;;;;5041914;28;20230;-72
2022/03/12 11:07:20;;;;;;;7.40;4.57;;;9.30;60.00;;;;;;5039554;28;20531;-73
2022/03/12 11:09:46;;;;;;;8.73;5.50;;;9.20;59.70;;;;;;5050942;28;20218;-72
2022/03/12 11:12:35;;;;;;;9.83;5.23;;;9.40;59.70;;;;;;5052128;28;20212;-71
2022/03/12 11:15:15;;;;;;;9.07;4.90;;;9.30;59.00;;;;;;5046807;28;20211;-72
2022/03/12 11:17:43;;;;;;;14.77;5.30;;;9.50;59.00;;;;;;5052519;28;20716;-74
2022/03/12 11:20:21;;;;;;;8.20;5.00;;;9.90;58.70;;;;;;5053288;28;20179;-73
2022/03/12 11:23:05;;;;;;;12.73;5.47;;;9.50;58.90;;;;;;5051911;28;20231;-71
2022/03/12 11:25:31;;;;;;;14.37;5.77;;;9.60;59.10;;;;;;5051023;28;20675;-73
2022/03/12 11:28:02;;;;;;;11.17;5.13;;;10.00;59.30;;;;;;5052375;28;20215;-72
2022/03/12 11:30:30;;;;;;;10.87;5.30;;;10.10;58.80;;;;;;5052281;28;20639;-73
2022/03/12 11:33:07;;;;;;;9.53;5.77;;;10.00;57.90;;;;;;5052385;28;20233;-72
2022/03/12 11:35:36;;;;;;;7.90;4.93;;;9.90;57.90;;;;;;5052378;28;20225;-74
2022/03/12 11:38:21;;;;;;;8.23;5.30;;;10.20;58.20;;;;;;5049713;28;20208;-74
2022/03/12 11:40:49;;;;;;;8.50;4.80;;;10.20;58.30;;;;;;5051294;28;20770;-75
2022/03/12 11:43:27;;;;;;;9.57;5.37;;;10.20;58.30;;;;;;5044651;28;20224;-73
2022/03/12 11:45:55;;;;;;;8.50;5.30;;;10.00;58.20;;;;;;5045430;28;20238;-72
2022/03/12 11:48:21;;;;;;;7.83;4.37;;;10.00;58.40;;;;;;5052326;28;20226;-75
2022/03/12 11:50:47;;;;;;;9.20;5.23;;;10.00;58.60;;;;;;5044737;28;20269;-74
2022/03/12 11:53:17;;;;;;;7.03;4.37;;;10.20;58.30;;;;;;5052988;28;20208;-72
2022/03/12 11:55:45;;;;;;;8.00;4.70;;;10.20;57.70;;;;;;5052801;28;20228;-70
2022/03/12 11:58:11;;;;;;;7.83;5.00;;;10.20;57.80;;;;;;5051829;28;20215;-69
2022/03/12 12:00:36;;;;;;;9.73;5.47;;;10.40;58.20;;;;;;5048937;28;20283;-69
2022/03/12 12:03:02;;;;;;;7.73;5.00;;;10.50;57.80;;;;;;5050961;28;20208;-69
2022/03/12 12:05:30;;;;;;;10.17;5.17;;;10.40;57.30;;;;;;5052080;28;20191;-71
2022/03/12 12:07:56;;;;;;;9.90;4.60;;;10.20;58.40;;;;;;5052593;28;20183;-70
2022/03/12 12:10:30;;;;;;;10.93;4.43;;;10.30;58.10;;;;;;5051992;28;20701;-68
2022/03/12 12:12:57;;;;;;;7.60;4.60;;;10.30;57.60;;;;;;5052183;28;20211;-71
2022/03/12 12:15:29;;;;;;;11.00;4.77;;;10.60;57.60;;;;;;5050659;28;20216;-71
2022/03/12 12:17:55;;;;;;;7.90;4.37;;;10.60;57.20;;;;;;5051615;28;20302;-70
2022/03/12 12:20:22;;;;;;;9.93;5.10;;;10.60;57.60;;;;;;5051864;28;20274;-69
2022/03/12 12:22:49;;;;;;;7.53;4.43;;;10.70;57.70;;;;;;5067714;22;20328;-68
2022/03/12 12:25:17;;;;;;;9.67;4.97;;;10.60;57.80;;;;;;5051167;28;20239;-69
2022/03/12 12:27:49;;;;;;;9.27;5.27;;;10.80;57.70;;;;;;5052049;28;20243;-68
2022/03/12 12:30:42;;;;;;;8.83;4.50;;;10.90;57.60;;;;;;5048431;28;20232;-74
2022/03/12 12:33:22;;;;;;;7.50;4.57;;;10.80;56.90;;;;;;5043920;28;20212;-72
2022/03/12 12:35:50;;;;;;;6.57;4.47;;;10.70;57.90;;;;;;5057583;28;20215;-72
2022/03/12 12:38:19;;;;;;;8.20;4.67;;;10.90;57.50;;;;;;5028087;28;20207;-71
2022/03/12 12:40:50;;;;;;;6.57;4.47;;;10.70;57.30;;;;;;5032057;28;20230;-71
2022/03/12 12:43:20;;;;;;;7.73;4.80;;;10.40;57.30;;;;;;5032161;28;20212;-75